sensor_id;sensor_type;location;lat;lon;timestamp;P1;durP1;ratioP1;P2;durP2;ratioP2
18217;SDS011;9234;49.344;11.120;2023-03-01T00:01:47;20.30;;;11.63;;
18217;SDS011;9234;49.344;11.120;2023-03-01T00:04:15;20.10;;;11.10;;
18217;SDS011;9234;49.344;11.120;2023-03-01T00:06:43;19.40;;;12.37;;
18217;SDS011;9234;49.344;11.120;2023-03-01T00:09:14;18.50;;;11.57;;
18217;SDS011;9234;49.344;11.120;2023-03-01T00:11:44;18.07;;;11.23;;
18217;SDS011;9234;49.344;11.120;2023-03-01T00:14:13;17.37;;;10.97;;
18217;SDS011;9234;49.344;11.120;2023-03-01T00:16:43;18.83;;;11.37;;
18217;SDS011;9234;49.344;11.120;2023-03-01T00:19:13;19.90;;;11.57;;
18217;SDS011;9234;49.344;11.120;2023-03-01T00:21:44;21.87;;;11.33;;
18217;SDS011;9234;49.344;11.120;2023-03-01T00:24:14;20.60;;;11.83;;
18217;SDS011;9234;49.344;11.120;2023-03-01T00:26:43;20.17;;;11.97;;
18217;SDS011;9234;49.344;11.120;2023-03-01T00:29:11;19.40;;;11.60;;
18217;SDS011;9234;49.344;11.120;2023-03-01T00:31:39;17.90;;;10.37;;
18217;SDS011;9234;49.344;11.120;2023-03-01T00:34:08;20.10;;;11.67;;
18217;SDS011;9234;49.344;11.120;2023-03-01T00:36:37;23.37;;;11.90;;
18217;SDS011;9234;49.344;11.120;2023-03-01T00:39:09;18.17;;;11.23;;
18217;SDS011;9234;49.344;11.120;2023-03-01T00:41:42;17.43;;;10.37;;
18217;SDS011;9234;49.344;11.120;2023-03-01T00:44:10;19.37;;;11.40;;
18217;SDS011;9234;49.344;11.120;2023-03-01T00:46:39;19.70;;;12.00;;
18217;SDS011;9234;49.344;11.120;2023-03-01T00:49:07;18.80;;;11.20;;
18217;SDS011;9234;49.344;11.120;2023-03-01T00:51:35;19.10;;;11.20;;
18217;SDS011;9234;49.344;11.120;2023-03-01T00:54:05;19.60;;;11.23;;
18217;SDS011;9234;49.344;11.120;2023-03-01T00:56:35;18.30;;;11.13;;
18217;SDS011;9234;49.344;11.120;2023-03-01T00:59:05;22.37;;;12.13;;
18217;SDS011;9234;49.344;11.120;2023-03-01T01:01:33;19.03;;;11.57;;
18217;SDS011;9234;49.344;11.120;2023-03-01T01:04:02;20.33;;;11.27;;
18217;SDS011;9234;49.344;11.120;2023-03-01T01:06:33;18.87;;;11.67;;
18217;SDS011;9234;49.344;11.120;2023-03-01T01:09:05;19.07;;;12.07;;
18217;SDS011;9234;49.344;11.120;2023-03-01T01:11:34;18.80;;;10.80;;
18217;SDS011;9234;49.344;11.120;2023-03-01T01:14:03;19.63;;;11.37;;
18217;SDS011;9234;49.344;11.120;2023-03-01T01:16:33;19.27;;;11.37;;
18217;SDS011;9234;49.344;11.120;2023-03-01T01:19:01;21.83;;;10.60;;
18217;SDS011;9234;49.344;11.120;2023-03-01T01:21:29;21.47;;;10.90;;
18217;SDS011;9234;49.344;11.120;2023-03-01T01:23:59;20.93;;;11.30;;
18217;SDS011;9234;49.344;11.120;2023-03-01T01:26:30;16.97;;;10.60;;
18217;SDS011;9234;49.344;11.120;2023-03-01T01:29:00;23.47;;;11.63;;
18217;SDS011;9234;49.344;11.120;2023-03-01T01:31:32;17.67;;;11.43;;
18217;SDS011;9234;49.344;11.120;2023-03-01T01:34:04;20.87;;;12.00;;
18217;SDS011;9234;49.344;11.120;2023-03-01T01:36:35;20.63;;;12.30;;
18217;SDS011;9234;49.344;11.120;2023-03-01T01:39:03;18.13;;;11.47;;
18217;SDS011;9234;49.344;11.120;2023-03-01T01:41:33;26.20;;;12.50;;
18217;SDS011;9234;49.344;11.120;2023-03-01T01:44:15;25.57;;;13.17;;
18217;SDS011;9234;49.344;11.120;2023-03-01T01:46:49;24.90;;;13.13;;
18217;SDS011;9234;49.344;11.120;2023-03-01T01:49:26;22.23;;;12.23;;
18217;SDS011;9234;49.344;11.120;2023-03-01T01:52:02;26.23;;;12.37;;
18217;SDS011;9234;49.344;11.120;2023-03-01T01:54:40;21.63;;;11.30;;
18217;SDS011;9234;49.344;11.120;2023-03-01T01:57:15;23.10;;;11.83;;
18217;SDS011;9234;49.344;11.120;2023-03-01T01:59:48;24.20;;;12.00;;
18217;SDS011;9234;49.344;11.120;2023-03-01T02:02:23;23.17;;;14.37;;
18217;SDS011;9234;49.344;11.120;2023-03-01T02:04:55;26.67;;;16.37;;
18217;SDS011;9234;49.344;11.120;2023-03-01T02:07:36;26.40;;;16.43;;
18217;SDS011;9234;49.344;11.120;2023-03-01T02:10:08;30.07;;;18.67;;
18217;SDS011;9234;49.344;11.120;2023-03-01T02:12:37;31.47;;;17.33;;
18217;SDS011;9234;49.344;11.120;2023-03-01T02:15:07;28.53;;;15.47;;
18217;SDS011;9234;49.344;11.120;2023-03-01T02:17:38;29.27;;;18.30;;
18217;SDS011;9234;49.344;11.120;2023-03-01T02:20:09;24.83;;;15.13;;
18217;SDS011;9234;49.344;11.120;2023-03-01T02:22:49;23.60;;;13.40;;
18217;SDS011;9234;49.344;11.120;2023-03-01T02:25:23;23.90;;;14.60;;
18217;SDS011;9234;49.344;11.120;2023-03-01T02:28:03;21.93;;;13.87;;
18217;SDS011;9234;49.344;11.120;2023-03-01T02:30:40;22.03;;;13.83;;
18217;SDS011;9234;49.344;11.120;2023-03-01T02:33:30;28.33;;;14.90;;
18217;SDS011;9234;49.344;11.120;2023-03-01T02:36:03;27.13;;;16.00;;
18217;SDS011;9234;49.344;11.120;2023-03-01T02:38:37;28.00;;;15.83;;
18217;SDS011;9234;49.344;11.120;2023-03-01T02:41:06;29.60;;;17.60;;
18217;SDS011;9234;49.344;11.120;2023-03-01T02:43:38;30.97;;;16.30;;
18217;SDS011;9234;49.344;11.120;2023-03-01T02:46:08;24.87;;;14.53;;
18217;SDS011;9234;49.344;11.120;2023-03-01T02:48:43;23.17;;;13.70;;
18217;SDS011;9234;49.344;11.120;2023-03-01T02:51:21;28.23;;;14.97;;
18217;SDS011;9234;49.344;11.120;2023-03-01T02:54:06;25.90;;;15.67;;
18217;SDS011;9234;49.344;11.120;2023-03-01T02:56:42;24.30;;;14.87;;
18217;SDS011;9234;49.344;11.120;2023-03-01T02:59:18;29.07;;;17.37;;
18217;SDS011;9234;49.344;11.120;2023-03-01T03:01:51;29.10;;;19.03;;
18217;SDS011;9234;49.344;11.120;2023-03-01T03:04:19;28.63;;;17.10;;
18217;SDS011;9234;49.344;11.120;2023-03-01T03:06:49;29.53;;;16.43;;
18217;SDS011;9234;49.344;11.120;2023-03-01T03:09:18;28.20;;;16.93;;
18217;SDS011;9234;49.344;11.120;2023-03-01T03:11:47;24.97;;;15.00;;
18217;SDS011;9234;49.344;11.120;2023-03-01T03:14:16;18.90;;;11.80;;
18217;SDS011;9234;49.344;11.120;2023-03-01T03:16:47;22.93;;;13.13;;
18217;SDS011;9234;49.344;11.120;2023-03-01T03:19:18;21.17;;;11.37;;
18217;SDS011;9234;49.344;11.120;2023-03-01T03:21:47;20.57;;;11.77;;
18217;SDS011;9234;49.344;11.120;2023-03-01T03:24:15;24.73;;;12.30;;
18217;SDS011;9234;49.344;11.120;2023-03-01T03:26:44;22.57;;;12.33;;
18217;SDS011;9234;49.344;11.120;2023-03-01T03:29:12;24.57;;;13.03;;
18217;SDS011;9234;49.344;11.120;2023-03-01T03:31:41;16.87;;;11.10;;
18217;SDS011;9234;49.344;11.120;2023-03-01T03:34:10;21.83;;;12.70;;
18217;SDS011;9234;49.344;11.120;2023-03-01T03:36:44;21.80;;;12.17;;
18217;SDS011;9234;49.344;11.120;2023-03-01T03:39:12;22.23;;;12.77;;
18217;SDS011;9234;49.344;11.120;2023-03-01T03:41:40;21.37;;;12.00;;
18217;SDS011;9234;49.344;11.120;2023-03-01T03:44:08;18.97;;;11.47;;
18217;SDS011;9234;49.344;11.120;2023-03-01T03:46:37;23.73;;;12.70;;
18217;SDS011;9234;49.344;11.120;2023-03-01T03:49:05;19.90;;;12.70;;
18217;SDS011;9234;49.344;11.120;2023-03-01T03:51:34;20.40;;;11.17;;
18217;SDS011;9234;49.344;11.120;2023-03-01T03:54:03;23.37;;;11.97;;
18217;SDS011;9234;49.344;11.120;2023-03-01T03:56:31;18.73;;;11.10;;
18217;SDS011;9234;49.344;11.120;2023-03-01T03:58:59;18.97;;;11.00;;
18217;SDS011;9234;49.344;11.120;2023-03-01T04:01:27;20.53;;;11.83;;
18217;SDS011;9234;49.344;11.120;2023-03-01T04:03:56;25.33;;;11.27;;
18217;SDS011;9234;49.344;11.120;2023-03-01T04:06:30;19.47;;;11.43;;
18217;SDS011;9234;49.344;11.120;2023-03-01T04:09:00;17.67;;;10.07;;
18217;SDS011;9234;49.344;11.120;2023-03-01T04:11:29;22.37;;;12.07;;
18217;SDS011;9234;49.344;11.120;2023-03-01T04:13:57;21.07;;;12.00;;
18217;SDS011;9234;49.344;11.120;2023-03-01T04:16:26;21.20;;;11.20;;
18217;SDS011;9234;49.344;11.120;2023-03-01T04:18:55;23.27;;;10.57;;
18217;SDS011;9234;49.344;11.120;2023-03-01T04:21:25;22.17;;;11.67;;
18217;SDS011;9234;49.344;11.120;2023-03-01T04:23:54;21.00;;;11.50;;
18217;SDS011;9234;49.344;11.120;2023-03-01T04:26:23;20.73;;;10.93;;
18217;SDS011;9234;49.344;11.120;2023-03-01T04:28:53;21.60;;;11.37;;
18217;SDS011;9234;49.344;11.120;2023-03-01T04:31:21;21.70;;;11.70;;
18217;SDS011;9234;49.344;11.120;2023-03-01T04:33:51;18.73;;;10.60;;
18217;SDS011;9234;49.344;11.120;2023-03-01T04:36:22;22.63;;;12.40;;
18217;SDS011;9234;49.344;11.120;2023-03-01T04:38:53;19.13;;;11.53;;
18217;SDS011;9234;49.344;11.120;2023-03-01T04:41:22;21.03;;;11.40;;
18217;SDS011;9234;49.344;11.120;2023-03-01T04:43:53;21.17;;;11.57;;
18217;SDS011;9234;49.344;11.120;2023-03-01T04:46:26;22.17;;;11.90;;
18217;SDS011;9234;49.344;11.120;2023-03-01T04:48:55;20.77;;;12.63;;
18217;SDS011;9234;49.344;11.120;2023-03-01T04:51:23;20.50;;;12.00;;
18217;SDS011;9234;49.344;11.120;2023-03-01T04:53:52;21.57;;;11.60;;
18217;SDS011;9234;49.344;11.120;2023-03-01T04:56:20;23.37;;;12.20;;
18217;SDS011;9234;49.344;11.120;2023-03-01T04:58:52;21.23;;;11.10;;
18217;SDS011;9234;49.344;11.120;2023-03-01T05:01:21;17.47;;;10.43;;
18217;SDS011;9234;49.344;11.120;2023-03-01T05:03:50;25.53;;;12.10;;
18217;SDS011;9234;49.344;11.120;2023-03-01T05:06:19;17.40;;;10.90;;
18217;SDS011;9234;49.344;11.120;2023-03-01T05:08:48;23.10;;;12.47;;
18217;SDS011;9234;49.344;11.120;2023-03-01T05:11:16;23.20;;;12.20;;
18217;SDS011;9234;49.344;11.120;2023-03-01T05:13:44;21.37;;;11.77;;
18217;SDS011;9234;49.344;11.120;2023-03-01T05:16:14;21.43;;;11.50;;
18217;SDS011;9234;49.344;11.120;2023-03-01T05:18:43;19.53;;;10.67;;
18217;SDS011;9234;49.344;11.120;2023-03-01T05:21:12;24.33;;;12.27;;
18217;SDS011;9234;49.344;11.120;2023-03-01T05:23:43;22.00;;;11.10;;
18217;SDS011;9234;49.344;11.120;2023-03-01T05:26:13;18.37;;;10.93;;
18217;SDS011;9234;49.344;11.120;2023-03-01T05:28:58;21.10;;;11.83;;
18217;SDS011;9234;49.344;11.120;2023-03-01T05:31:28;21.77;;;11.80;;
18217;SDS011;9234;49.344;11.120;2023-03-01T05:33:57;19.53;;;11.77;;
18217;SDS011;9234;49.344;11.120;2023-03-01T05:36:25;21.50;;;12.07;;
18217;SDS011;9234;49.344;11.120;2023-03-01T05:38:54;25.53;;;12.77;;
18217;SDS011;9234;49.344;11.120;2023-03-01T05:41:22;24.10;;;11.97;;
18217;SDS011;9234;49.344;11.120;2023-03-01T05:43:50;27.83;;;12.50;;
18217;SDS011;9234;49.344;11.120;2023-03-01T05:46:18;22.70;;;13.53;;
18217;SDS011;9234;49.344;11.120;2023-03-01T05:48:48;26.93;;;12.23;;
18217;SDS011;9234;49.344;11.120;2023-03-01T05:51:16;28.23;;;13.20;;
18217;SDS011;9234;49.344;11.120;2023-03-01T05:53:44;25.27;;;12.00;;
18217;SDS011;9234;49.344;11.120;2023-03-01T05:56:13;24.87;;;13.13;;
18217;SDS011;9234;49.344;11.120;2023-03-01T05:58:41;22.07;;;11.63;;
18217;SDS011;9234;49.344;11.120;2023-03-01T06:01:10;26.70;;;12.17;;
18217;SDS011;9234;49.344;11.120;2023-03-01T06:03:39;25.03;;;12.00;;
18217;SDS011;9234;49.344;11.120;2023-03-01T06:06:09;31.23;;;14.13;;
18217;SDS011;9234;49.344;11.120;2023-03-01T06:08:37;20.83;;;11.73;;
18217;SDS011;9234;49.344;11.120;2023-03-01T06:11:06;25.03;;;12.87;;
18217;SDS011;9234;49.344;11.120;2023-03-01T06:13:34;25.50;;;12.87;;
18217;SDS011;9234;49.344;11.120;2023-03-01T06:16:03;25.30;;;13.27;;
18217;SDS011;9234;49.344;11.120;2023-03-01T06:18:33;22.80;;;12.87;;
18217;SDS011;9234;49.344;11.120;2023-03-01T06:21:01;25.47;;;12.83;;
18217;SDS011;9234;49.344;11.120;2023-03-01T06:23:32;22.40;;;12.03;;
18217;SDS011;9234;49.344;11.120;2023-03-01T06:26:04;20.93;;;12.20;;
18217;SDS011;9234;49.344;11.120;2023-03-01T06:28:34;26.23;;;12.67;;
18217;SDS011;9234;49.344;11.120;2023-03-01T06:31:03;24.07;;;12.83;;
18217;SDS011;9234;49.344;11.120;2023-03-01T06:33:35;22.30;;;12.30;;
18217;SDS011;9234;49.344;11.120;2023-03-01T06:36:03;21.73;;;11.03;;
18217;SDS011;9234;49.344;11.120;2023-03-01T06:38:34;60.17;;;21.17;;
18217;SDS011;9234;49.344;11.120;2023-03-01T06:41:02;30.27;;;14.90;;
18217;SDS011;9234;49.344;11.120;2023-03-01T06:43:31;35.20;;;14.00;;
18217;SDS011;9234;49.344;11.120;2023-03-01T06:45:59;31.37;;;15.27;;
18217;SDS011;9234;49.344;11.120;2023-03-01T06:48:27;41.33;;;18.27;;
18217;SDS011;9234;49.344;11.120;2023-03-01T06:50:57;31.67;;;16.90;;
18217;SDS011;9234;49.344;11.120;2023-03-01T06:53:26;32.53;;;15.47;;
18217;SDS011;9234;49.344;11.120;2023-03-01T06:55:56;29.30;;;15.27;;
18217;SDS011;9234;49.344;11.120;2023-03-01T06:58:26;33.60;;;16.10;;
18217;SDS011;9234;49.344;11.120;2023-03-01T07:00:54;28.17;;;14.87;;
18217;SDS011;9234;49.344;11.120;2023-03-01T07:03:22;31.17;;;15.93;;
18217;SDS011;9234;49.344;11.120;2023-03-01T07:05:51;27.43;;;15.67;;
18217;SDS011;9234;49.344;11.120;2023-03-01T07:08:19;33.70;;;19.80;;
18217;SDS011;9234;49.344;11.120;2023-03-01T07:10:47;36.03;;;17.53;;
18217;SDS011;9234;49.344;11.120;2023-03-01T07:13:22;27.73;;;15.40;;
18217;SDS011;9234;49.344;11.120;2023-03-01T07:15:51;30.70;;;16.17;;
18217;SDS011;9234;49.344;11.120;2023-03-01T07:18:19;29.97;;;16.80;;
18217;SDS011;9234;49.344;11.120;2023-03-01T07:20:48;32.40;;;17.07;;
18217;SDS011;9234;49.344;11.120;2023-03-01T07:23:16;28.83;;;16.20;;
18217;SDS011;9234;49.344;11.120;2023-03-01T07:25:44;31.50;;;16.77;;
18217;SDS011;9234;49.344;11.120;2023-03-01T07:28:20;33.30;;;17.40;;
18217;SDS011;9234;49.344;11.120;2023-03-01T07:30:51;30.07;;;16.87;;
18217;SDS011;9234;49.344;11.120;2023-03-01T07:33:20;36.27;;;18.83;;
18217;SDS011;9234;49.344;11.120;2023-03-01T07:35:55;33.97;;;17.63;;
18217;SDS011;9234;49.344;11.120;2023-03-01T07:38:25;26.70;;;15.90;;
18217;SDS011;9234;49.344;11.120;2023-03-01T07:40:54;29.40;;;15.00;;
18217;SDS011;9234;49.344;11.120;2023-03-01T07:43:28;26.67;;;15.10;;
18217;SDS011;9234;49.344;11.120;2023-03-01T07:45:57;40.87;;;19.20;;
18217;SDS011;9234;49.344;11.120;2023-03-01T07:48:27;37.93;;;19.17;;
18217;SDS011;9234;49.344;11.120;2023-03-01T07:50:57;39.33;;;20.87;;
18217;SDS011;9234;49.344;11.120;2023-03-01T07:53:26;43.20;;;21.40;;
18217;SDS011;9234;49.344;11.120;2023-03-01T07:56:00;43.77;;;22.57;;
18217;SDS011;9234;49.344;11.120;2023-03-01T07:58:33;35.43;;;16.83;;
18217;SDS011;9234;49.344;11.120;2023-03-01T08:01:02;25.17;;;16.00;;
18217;SDS011;9234;49.344;11.120;2023-03-01T08:03:31;23.73;;;13.97;;
18217;SDS011;9234;49.344;11.120;2023-03-01T08:06:00;28.17;;;16.37;;
18217;SDS011;9234;49.344;11.120;2023-03-01T08:08:30;23.27;;;15.10;;
18217;SDS011;9234;49.344;11.120;2023-03-01T08:11:01;24.93;;;13.93;;
18217;SDS011;9234;49.344;11.120;2023-03-01T08:13:33;26.20;;;14.10;;
18217;SDS011;9234;49.344;11.120;2023-03-01T08:16:02;27.53;;;14.53;;
18217;SDS011;9234;49.344;11.120;2023-03-01T08:18:32;24.77;;;15.07;;
18217;SDS011;9234;49.344;11.120;2023-03-01T08:21:01;26.50;;;15.53;;
18217;SDS011;9234;49.344;11.120;2023-03-01T08:23:31;30.17;;;14.57;;
18217;SDS011;9234;49.344;11.120;2023-03-01T08:26:03;23.90;;;14.20;;
18217;SDS011;9234;49.344;11.120;2023-03-01T08:28:36;26.97;;;14.40;;
18217;SDS011;9234;49.344;11.120;2023-03-01T08:31:12;28.23;;;13.87;;
18217;SDS011;9234;49.344;11.120;2023-03-01T08:33:42;28.50;;;15.60;;
18217;SDS011;9234;49.344;11.120;2023-03-01T08:36:10;20.93;;;12.97;;
18217;SDS011;9234;49.344;11.120;2023-03-01T08:38:39;23.47;;;14.07;;
18217;SDS011;9234;49.344;11.120;2023-03-01T08:41:07;31.67;;;14.50;;
18217;SDS011;9234;49.344;11.120;2023-03-01T08:43:36;20.73;;;13.57;;
18217;SDS011;9234;49.344;11.120;2023-03-01T08:46:05;25.73;;;13.47;;
18217;SDS011;9234;49.344;11.120;2023-03-01T08:48:33;23.60;;;13.47;;
18217;SDS011;9234;49.344;11.120;2023-03-01T08:51:08;23.00;;;14.03;;
18217;SDS011;9234;49.344;11.120;2023-03-01T08:53:38;23.00;;;14.13;;
18217;SDS011;9234;49.344;11.120;2023-03-01T08:56:07;26.63;;;14.57;;
18217;SDS011;9234;49.344;11.120;2023-03-01T08:58:37;20.80;;;14.10;;
18217;SDS011;9234;49.344;11.120;2023-03-01T09:01:07;24.80;;;14.37;;
18217;SDS011;9234;49.344;11.120;2023-03-01T09:03:36;25.23;;;14.90;;
18217;SDS011;9234;49.344;11.120;2023-03-01T09:06:05;21.73;;;15.07;;
18217;SDS011;9234;49.344;11.120;2023-03-01T09:08:35;24.07;;;14.60;;
18217;SDS011;9234;49.344;11.120;2023-03-01T09:11:05;24.30;;;15.17;;
18217;SDS011;9234;49.344;11.120;2023-03-01T09:13:35;25.07;;;15.17;;
18217;SDS011;9234;49.344;11.120;2023-03-01T09:16:06;25.67;;;15.47;;
18217;SDS011;9234;49.344;11.120;2023-03-01T09:18:35;20.57;;;13.83;;
18217;SDS011;9234;49.344;11.120;2023-03-01T09:21:04;20.17;;;15.37;;
18217;SDS011;9234;49.344;11.120;2023-03-01T09:23:35;21.37;;;14.50;;
18217;SDS011;9234;49.344;11.120;2023-03-01T09:26:05;21.03;;;14.20;;
18217;SDS011;9234;49.344;11.120;2023-03-01T09:28:35;28.17;;;15.70;;
18217;SDS011;9234;49.344;11.120;2023-03-01T09:31:06;20.43;;;14.23;;
18217;SDS011;9234;49.344;11.120;2023-03-01T09:33:34;22.17;;;15.43;;
18217;SDS011;9234;49.344;11.120;2023-03-01T09:36:03;22.80;;;14.33;;
18217;SDS011;9234;49.344;11.120;2023-03-01T09:38:34;22.13;;;14.37;;
18217;SDS011;9234;49.344;11.120;2023-03-01T09:41:08;23.20;;;14.30;;
18217;SDS011;9234;49.344;11.120;2023-03-01T09:43:48;20.10;;;14.63;;
18217;SDS011;9234;49.344;11.120;2023-03-01T09:46:23;21.40;;;14.80;;
18217;SDS011;9234;49.344;11.120;2023-03-01T09:48:55;22.93;;;14.30;;
18217;SDS011;9234;49.344;11.120;2023-03-01T09:51:29;23.63;;;15.07;;
18217;SDS011;9234;49.344;11.120;2023-03-01T09:54:01;25.87;;;14.13;;
18217;SDS011;9234;49.344;11.120;2023-03-01T09:56:33;22.03;;;14.13;;
18217;SDS011;9234;49.344;11.120;2023-03-01T09:59:11;20.27;;;13.57;;
18217;SDS011;9234;49.344;11.120;2023-03-01T10:01:55;19.20;;;13.20;;
18217;SDS011;9234;49.344;11.120;2023-03-01T10:04:38;20.30;;;13.67;;
18217;SDS011;9234;49.344;11.120;2023-03-01T10:07:17;20.97;;;14.50;;
18217;SDS011;9234;49.344;11.120;2023-03-01T10:09:57;20.07;;;13.67;;
18217;SDS011;9234;49.344;11.120;2023-03-01T10:12:27;18.93;;;12.60;;
18217;SDS011;9234;49.344;11.120;2023-03-01T10:15:04;17.43;;;13.60;;
18217;SDS011;9234;49.344;11.120;2023-03-01T10:17:41;20.23;;;14.63;;
18217;SDS011;9234;49.344;11.120;2023-03-01T10:20:19;19.03;;;12.50;;
18217;SDS011;9234;49.344;11.120;2023-03-01T10:22:50;20.67;;;13.90;;
18217;SDS011;9234;49.344;11.120;2023-03-01T10:25:24;18.90;;;12.97;;
18217;SDS011;9234;49.344;11.120;2023-03-01T10:28:15;19.33;;;13.67;;
18217;SDS011;9234;49.344;11.120;2023-03-01T10:30:47;22.80;;;14.00;;
18217;SDS011;9234;49.344;11.120;2023-03-01T10:33:17;20.67;;;13.43;;
18217;SDS011;9234;49.344;11.120;2023-03-01T10:35:52;22.07;;;15.03;;
18217;SDS011;9234;49.344;11.120;2023-03-01T10:38:21;19.30;;;12.93;;
18217;SDS011;9234;49.344;11.120;2023-03-01T10:40:53;20.20;;;14.10;;
18217;SDS011;9234;49.344;11.120;2023-03-01T10:43:24;19.97;;;12.80;;
18217;SDS011;9234;49.344;11.120;2023-03-01T10:45:58;22.90;;;13.30;;
18217;SDS011;9234;49.344;11.120;2023-03-01T10:48:27;17.60;;;13.37;;
18217;SDS011;9234;49.344;11.120;2023-03-01T10:51:04;19.63;;;13.80;;
18217;SDS011;9234;49.344;11.120;2023-03-01T10:53:35;18.73;;;13.03;;
18217;SDS011;9234;49.344;11.120;2023-03-01T10:56:08;18.47;;;12.77;;
18217;SDS011;9234;49.344;11.120;2023-03-01T10:58:40;17.77;;;13.47;;
18217;SDS011;9234;49.344;11.120;2023-03-01T11:01:26;19.30;;;13.37;;
18217;SDS011;9234;49.344;11.120;2023-03-01T11:04:12;20.67;;;13.20;;
18217;SDS011;9234;49.344;11.120;2023-03-01T11:06:41;20.48;;;13.35;;
18217;SDS011;9234;49.344;11.120;2023-03-01T11:09:14;17.70;;;13.77;;
18217;SDS011;9234;49.344;11.120;2023-03-01T11:11:45;17.27;;;13.57;;
18217;SDS011;9234;49.344;11.120;2023-03-01T11:14:20;17.45;;;13.65;;
18217;SDS011;9234;49.344;11.120;2023-03-01T11:17:00;18.05;;;14.68;;
18217;SDS011;9234;49.344;11.120;2023-03-01T11:19:32;19.33;;;14.30;;
18217;SDS011;9234;49.344;11.120;2023-03-01T11:22:02;18.67;;;14.53;;
18217;SDS011;9234;49.344;11.120;2023-03-01T11:24:38;19.00;;;13.07;;
18217;SDS011;9234;49.344;11.120;2023-03-01T11:27:17;18.63;;;13.43;;
18217;SDS011;9234;49.344;11.120;2023-03-01T11:29:51;19.65;;;13.50;;
18217;SDS011;9234;49.344;11.120;2023-03-01T11:32:25;20.88;;;14.45;;
18217;SDS011;9234;49.344;11.120;2023-03-01T11:35:02;18.15;;;13.88;;
18217;SDS011;9234;49.344;11.120;2023-03-01T11:37:41;18.13;;;13.27;;
18217;SDS011;9234;49.344;11.120;2023-03-01T11:40:27;18.52;;;14.02;;
18217;SDS011;9234;49.344;11.120;2023-03-01T11:43:04;20.50;;;13.55;;
18217;SDS011;9234;49.344;11.120;2023-03-01T11:45:46;16.80;;;13.25;;
18217;SDS011;9234;49.344;11.120;2023-03-01T11:48:42;15.38;;;12.60;;
18217;SDS011;9234;49.344;11.120;2023-03-01T11:51:31;17.13;;;12.93;;
18217;SDS011;9234;49.344;11.120;2023-03-01T11:54:13;18.80;;;13.15;;
18217;SDS011;9234;49.344;11.120;2023-03-01T11:56:57;17.27;;;12.88;;
18217;SDS011;9234;49.344;11.120;2023-03-01T11:59:45;15.98;;;12.30;;
18217;SDS011;9234;49.344;11.120;2023-03-01T12:09:06;16.92;;;12.73;;
18217;SDS011;9234;49.344;11.120;2023-03-01T12:11:54;15.48;;;12.07;;
18217;SDS011;9234;49.344;11.120;2023-03-01T12:14:54;16.67;;;12.55;;
18217;SDS011;9234;49.344;11.120;2023-03-01T12:17:56;15.02;;;11.50;;
18217;SDS011;9234;49.344;11.120;2023-03-01T12:20:55;17.95;;;13.02;;
18217;SDS011;9234;49.344;11.120;2023-03-01T12:23:44;16.17;;;12.05;;
18217;SDS011;9234;49.344;11.120;2023-03-01T12:26:39;18.08;;;11.95;;
18217;SDS011;9234;49.344;11.120;2023-03-01T12:29:22;15.82;;;12.25;;
18217;SDS011;9234;49.344;11.120;2023-03-01T12:32:10;14.38;;;11.50;;
18217;SDS011;9234;49.344;11.120;2023-03-01T12:35:06;16.38;;;12.88;;
18217;SDS011;9234;49.344;11.120;2023-03-01T12:37:52;14.43;;;11.73;;
18217;SDS011;9234;49.344;11.120;2023-03-01T12:40:33;15.63;;;11.60;;
18217;SDS011;9234;49.344;11.120;2023-03-01T12:43:22;17.20;;;12.70;;
18217;SDS011;9234;49.344;11.120;2023-03-01T12:46:29;14.63;;;10.90;;
18217;SDS011;9234;49.344;11.120;2023-03-01T12:49:20;15.30;;;11.50;;
18217;SDS011;9234;49.344;11.120;2023-03-01T12:51:56;16.40;;;12.02;;
18217;SDS011;9234;49.344;11.120;2023-03-01T12:54:29;14.20;;;11.52;;
18217;SDS011;9234;49.344;11.120;2023-03-01T12:57:08;14.35;;;10.95;;
18217;SDS011;9234;49.344;11.120;2023-03-01T12:59:47;16.80;;;12.10;;
18217;SDS011;9234;49.344;11.120;2023-03-01T13:02:36;15.10;;;11.98;;
18217;SDS011;9234;49.344;11.120;2023-03-01T13:05:19;12.98;;;10.45;;
18217;SDS011;9234;49.344;11.120;2023-03-01T13:08:06;13.90;;;11.32;;
18217;SDS011;9234;49.344;11.120;2023-03-01T13:10:43;12.77;;;11.02;;
18217;SDS011;9234;49.344;11.120;2023-03-01T13:13:22;13.65;;;11.43;;
18217;SDS011;9234;49.344;11.120;2023-03-01T13:15:53;14.43;;;11.40;;
18217;SDS011;9234;49.344;11.120;2023-03-01T13:18:27;12.20;;;10.48;;
18217;SDS011;9234;49.344;11.120;2023-03-01T13:21:01;14.48;;;11.13;;
18217;SDS011;9234;49.344;11.120;2023-03-01T13:23:33;15.85;;;11.82;;
18217;SDS011;9234;49.344;11.120;2023-03-01T13:26:06;12.73;;;10.77;;
18217;SDS011;9234;49.344;11.120;2023-03-01T13:28:51;12.65;;;10.23;;
18217;SDS011;9234;49.344;11.120;2023-03-01T13:34:41;17.17;;;11.05;;
18217;SDS011;9234;49.344;11.120;2023-03-01T13:37:21;12.45;;;10.48;;
18217;SDS011;9234;49.344;11.120;2023-03-01T13:39:57;12.18;;;10.40;;
18217;SDS011;9234;49.344;11.120;2023-03-01T13:42:35;11.85;;;10.63;;
18217;SDS011;9234;49.344;11.120;2023-03-01T13:45:20;13.05;;;10.30;;
18217;SDS011;9234;49.344;11.120;2023-03-01T13:48:01;12.43;;;10.82;;
18217;SDS011;9234;49.344;11.120;2023-03-01T13:50:38;12.07;;;10.32;;
18217;SDS011;9234;49.344;11.120;2023-03-01T13:53:16;12.38;;;10.00;;
18217;SDS011;9234;49.344;11.120;2023-03-01T13:55:49;11.45;;;10.25;;
18217;SDS011;9234;49.344;11.120;2023-03-01T13:58:25;13.77;;;11.00;;
18217;SDS011;9234;49.344;11.120;2023-03-01T14:00:57;13.35;;;10.50;;
18217;SDS011;9234;49.344;11.120;2023-03-01T14:03:28;11.77;;;9.90;;
18217;SDS011;9234;49.344;11.120;2023-03-01T14:06:03;11.18;;;9.50;;
18217;SDS011;9234;49.344;11.120;2023-03-01T14:08:46;13.13;;;10.93;;
18217;SDS011;9234;49.344;11.120;2023-03-01T14:14:46;13.43;;;11.50;;
18217;SDS011;9234;49.344;11.120;2023-03-01T14:17:40;12.35;;;10.60;;
18217;SDS011;9234;49.344;11.120;2023-03-01T14:20:20;12.48;;;10.25;;
18217;SDS011;9234;49.344;11.120;2023-03-01T14:22:51;12.63;;;11.07;;
18217;SDS011;9234;49.344;11.120;2023-03-01T14:25:25;15.35;;;11.80;;
18217;SDS011;9234;49.344;11.120;2023-03-01T14:28:01;17.23;;;11.98;;
18217;SDS011;9234;49.344;11.120;2023-03-01T14:30:41;13.10;;;11.48;;
18217;SDS011;9234;49.344;11.120;2023-03-01T14:33:20;13.88;;;11.40;;
18217;SDS011;9234;49.344;11.120;2023-03-01T14:35:52;13.50;;;11.45;;
18217;SDS011;9234;49.344;11.120;2023-03-01T14:38:28;13.65;;;11.65;;
18217;SDS011;9234;49.344;11.120;2023-03-01T14:41:03;12.57;;;10.57;;
18217;SDS011;9234;49.344;11.120;2023-03-01T14:43:36;16.00;;;10.85;;
18217;SDS011;9234;49.344;11.120;2023-03-01T14:46:16;12.93;;;11.05;;
18217;SDS011;9234;49.344;11.120;2023-03-01T14:48:50;14.93;;;11.07;;
18217;SDS011;9234;49.344;11.120;2023-03-01T14:51:21;17.38;;;12.27;;
18217;SDS011;9234;49.344;11.120;2023-03-01T14:53:49;13.10;;;11.40;;
18217;SDS011;9234;49.344;11.120;2023-03-01T14:56:18;15.80;;;12.55;;
18217;SDS011;9234;49.344;11.120;2023-03-01T14:58:50;20.75;;;12.23;;
18217;SDS011;9234;49.344;11.120;2023-03-01T15:01:20;17.73;;;12.52;;
18217;SDS011;9234;49.344;11.120;2023-03-01T15:03:50;12.55;;;11.25;;
18217;SDS011;9234;49.344;11.120;2023-03-01T15:06:20;14.00;;;11.40;;
18217;SDS011;9234;49.344;11.120;2023-03-01T15:08:50;15.05;;;11.75;;